Bookmark and Share
Track history (hours):
 

F/V J. Louis Vincent

Last reported at 2014-Apr-17 14:15 UTC. Time now 2014-Apr-18 20:53 UTC.
Position N 43°24' E 003°42'.

Length 29 m.

Type: Fishing. MMSI: 227146600.

NotesDate/timePositionNaut miles runAvg speedWind from/ knotsBaromVisibWave heightAir tempDewpointWater temp
2014-Apr-17 14:15N 43°24' E 003°42'28 1.0
2014-Apr-16 10:32N 42°56' E 003°40'4 4.2
2014-Apr-16 09:31N 42°53' E 003°35'4 4.0
2014-Apr-16 08:25N 42°50' E 003°31'4 4.5
2014-Apr-16 07:32N 42°48' E 003°27'38 2.3
2014-Apr-15 15:30N 43°24' E 003°42'0 0.0
2014-Apr-15 14:32N 43°24' E 003°42'15 4.9
2014-Apr-15 11:33N 43°09' E 003°45'4 4.3
2014-Apr-15 10:31N 43°06' E 003°40'4 4.5
2014-Apr-15 09:34N 43°03' E 003°36'2 2.3
2014-Apr-15 08:33N 43°03' E 003°33'9 4.4
2014-Apr-15 06:33N 43°09' E 003°42'11 0.6
2014-Apr-14 11:33N 43°19' E 003°44'  
2014-Apr-11 15:32N 43°20' E 003°45'1111.5
2014-Apr-11 14:33N 43°09' E 003°51'9 4.3
2014-Apr-11 12:31N 43°01' E 003°56'5 4.5
2014-Apr-11 11:30N 42°57' E 003°57'2 1.5
2014-Apr-11 10:12N 42°55' E 003°59'3 4.3
2014-Apr-11 09:31N 42°56' E 004°02'5 4.2
2014-Apr-11 08:25N 42°57' E 004°08'4 4.6
2014-Apr-11 07:33N 42°56' E 004°14'2 2.3
2014-Apr-11 06:30N 42°58' E 004°13'4 4.2
2014-Apr-11 05:28N 42°59' E 004°07'4 4.2
2014-Apr-11 04:33N 43°01' E 004°02'5 4.2
2014-Apr-11 03:18N 43°04' E 003°56'3 4.5
2014-Apr-11 02:33N 43°07' E 003°54'1212.1
2014-Apr-11 01:33N 43°18' E 003°46'8 0.6
2014-Apr-10 12:33N 43°17' E 003°57'5 4.5
2014-Apr-10 11:31N 43°15' E 004°02'9 4.5
2014-Apr-10 09:33N 43°09' E 004°11'6 4.4
2014-Apr-10 08:18N 43°04' E 004°13'4 4.7
2014-Apr-10 07:28N 42°60' E 004°13'2 2.0
2014-Apr-10 06:33N 42°58' E 004°12'4 3.8
2014-Apr-10 05:31N 42°60' E 004°07'5 4.4
2014-Apr-10 04:21N 43°02' E 004°01'26 1.9
2014-Apr-09 14:31N 43°24' E 003°42'1 0.0
2014-Apr-08 15:22N 43°23' E 003°42'7 8.4
2014-Apr-08 14:33N 43°16' E 003°41'14 7.0
2014-Apr-08 12:33N 43°02' E 003°40'4 4.4
2014-Apr-08 11:33N 42°58' E 003°40'3 2.5
2014-Apr-08 10:32N 42°55' E 003°39'4 4.3
2014-Apr-08 09:32N 42°53' E 003°34'5 4.3
2014-Apr-08 08:27N 42°49' E 003°31'4 4.5
2014-Apr-08 07:32N 42°45' E 003°29'3 2.7
2014-Apr-08 06:31N 42°48' E 003°28'37 2.4
2014-Apr-07 15:09N 43°23' E 003°42'  

Dump ship's entire track history

sailing weather and tide predictions

F/V J. Louis Vincent — FQBL — position and weather